createdAt,value
2019-04-05T00:00:43.173Z,3.70
2019-04-05T00:03:11.616Z,3.70
2019-04-05T00:05:40.086Z,3.70
2019-04-05T00:08:08.521Z,3.60
2019-04-05T00:10:36.997Z,3.60
2019-04-05T00:13:05.766Z,3.50
2019-04-05T00:15:34.469Z,3.40
2019-04-05T00:18:02.942Z,3.40
2019-04-05T00:20:31.384Z,3.20
2019-04-05T00:22:59.890Z,3.20
2019-04-05T00:25:28.368Z,3.30
2019-04-05T00:27:57.088Z,3.30
2019-04-05T00:30:25.532Z,3.30
2019-04-05T00:32:53.994Z,3.40
2019-04-05T00:35:22.438Z,3.50
2019-04-05T00:37:50.895Z,3.50
2019-04-05T00:40:19.334Z,3.60
2019-04-05T00:42:47.852Z,3.70
2019-04-05T00:45:27.489Z,3.70
2019-04-05T00:47:47.140Z,3.70
2019-04-05T00:50:15.669Z,3.70
2019-04-05T00:52:44.213Z,3.70
2019-04-05T00:55:13.051Z,3.70
2019-04-05T00:57:41.555Z,3.70
2019-04-05T01:00:11.757Z,3.60
2019-04-05T01:02:40.459Z,3.60
2019-04-05T01:05:09.070Z,3.60
2019-04-05T01:07:37.646Z,3.60
2019-04-05T01:10:07.205Z,3.70
2019-04-05T01:12:36.522Z,3.70
2019-04-05T01:15:07.708Z,3.80
2019-04-05T01:17:36.901Z,3.90
2019-04-05T01:20:06.860Z,3.80
2019-04-05T01:22:36.246Z,3.80
2019-04-05T01:25:06.249Z,3.90
2019-04-05T01:27:37.336Z,3.80
2019-04-05T01:30:07.997Z,3.80
2019-04-05T01:32:36.456Z,3.80
2019-04-05T01:35:07.497Z,3.80
2019-04-05T01:37:37.605Z,3.80
2019-04-05T01:40:09.418Z,3.80
2019-04-05T01:42:39.036Z,3.80
2019-04-05T01:45:08.902Z,3.80
2019-04-05T01:47:38.030Z,3.80
2019-04-05T01:50:09.491Z,3.80
2019-04-05T01:52:38.577Z,3.80
2019-04-05T01:55:07.477Z,3.90
2019-04-05T01:57:35.928Z,3.90
2019-04-05T02:00:12.712Z,3.90
2019-04-05T02:02:41.474Z,3.90
2019-04-05T02:05:11.131Z,3.80
